createdAt,value
2022-08-12T00:00:27.592Z,2.15
2022-08-12T00:05:59.679Z,1.95
2022-08-12T00:11:26.507Z,2.00
2022-08-12T00:16:47.243Z,1.88
2022-08-12T00:22:09.117Z,1.80
2022-08-12T00:27:43.860Z,1.80
2022-08-12T00:33:06.532Z,1.60
2022-08-12T00:38:28.690Z,1.75
2022-08-12T00:43:31.609Z,2.45
2022-08-12T00:48:35.123Z,2.03
2022-08-12T00:53:39.957Z,1.80
2022-08-12T00:58:48.403Z,2.08
2022-08-12T01:04:09.647Z,1.70
2022-08-12T01:09:33.025Z,2.17
2022-08-12T01:14:36.499Z,2.10
2022-08-12T01:19:39.628Z,2.38
2022-08-12T01:25:00.790Z,2.00
2022-08-12T01:30:07.623Z,2.00
2022-08-12T01:35:13.536Z,1.80
2022-08-12T01:40:33.409Z,2.17
2022-08-12T01:45:48.402Z,2.05
2022-08-12T01:51:05.316Z,2.00
2022-08-12T02:01:15.051Z,2.20
2022-08-12T02:06:44.415Z,2.20
2022-08-12T02:11:58.919Z,2.35
2022-08-12T02:17:56.280Z,2.25
2022-08-12T02:22:55.278Z,2.20
2022-08-12T02:27:59.879Z,2.30
2022-08-12T02:33:09.042Z,2.38
2022-08-12T02:38:12.677Z,2.40
2022-08-12T02:43:23.230Z,2.38
2022-08-12T02:48:30.766Z,2.28
2022-08-12T02:53:35.691Z,2.38
2022-08-12T02:58:45.359Z,2.63
2022-08-12T03:03:52.823Z,2.50
2022-08-12T03:08:59.632Z,2.05
2022-08-12T03:14:07.086Z,2.35
2022-08-12T03:19:12.060Z,2.17
2022-08-12T03:24:18.497Z,2.45
2022-08-12T03:29:30.257Z,2.40
2022-08-12T03:34:35.316Z,2.35
2022-08-12T03:39:44.905Z,2.58
2022-08-12T03:45:14.877Z,2.10
2022-08-12T03:50:35.788Z,2.20
2022-08-12T03:55:56.189Z,2.15
2022-08-12T04:01:00.591Z,2.10
2022-08-12T04:06:03.487Z,2.00
2022-08-12T04:11:25.496Z,2.17
2022-08-12T04:16:31.485Z,2.40
2022-08-12T04:21:36.167Z,2.97
2022-08-12T04:26:40.876Z,2.30
2022-08-12T04:31:47.555Z,2.70
2022-08-12T04:36:50.392Z,3.05
2022-08-12T04:41:58.329Z,2.63
2022-08-12T04:47:03.248Z,2.20
2022-08-12T04:52:06.759Z,2.40
2022-08-12T04:57:35.554Z,2.50
2022-08-12T05:02:40.512Z,2.60
2022-08-12T05:07:53.100Z,2.63
2022-08-12T05:12:59.535Z,2.88
2022-08-12T05:18:19.703Z,2.55
2022-08-12T05:23:23.542Z,2.70
2022-08-12T05:28:27.731Z,2.72
2022-08-12T05:33:37.580Z,2.92
2022-08-12T05:38:59.804Z,3.33
2022-08-12T05:44:05.709Z,2.50
2022-08-12T05:49:10.323Z,2.78
2022-08-12T05:54:13.237Z,2.92
2022-08-12T05:59:16.298Z,3.05
2022-08-12T06:04:20.492Z,2.83
2022-08-12T06:09:25.667Z,3.10
2022-08-12T06:14:28.998Z,2.72
2022-08-12T06:20:26.046Z,2.83
2022-08-12T06:25:00.462Z,3.10
2022-08-12T06:30:08.177Z,3.20
2022-08-12T06:35:26.843Z,3.17
2022-08-12T06:40:57.195Z,3.58
2022-08-12T06:46:00.683Z,3.22
2022-08-12T06:51:05.678Z,3.40
2022-08-12T06:56:12.398Z,3.10
2022-08-12T07:01:17.441Z,3.03
2022-08-12T07:06:21.703Z,2.25
2022-08-12T07:11:24.767Z,2.55
2022-08-12T07:16:28.484Z,3.08
2022-08-12T07:22:00.388Z,3.08
2022-08-12T07:26:56.747Z,3.28
2022-08-12T07:31:59.700Z,2.78
2022-08-12T07:37:03.965Z,2.97
2022-08-12T07:42:07.261Z,2.90
2022-08-12T07:47:10.678Z,2.72
2022-08-12T07:52:17.038Z,2.90
2022-08-12T07:57:19.882Z,2.38
2022-08-12T08:02:26.773Z,2.40
2022-08-12T08:07:31.458Z,2.60
2022-08-12T08:12:51.960Z,2.47
2022-08-12T08:18:01.719Z,2.75
2022-08-12T08:23:08.283Z,2.40
2022-08-12T08:33:24.597Z,3.25
2022-08-12T08:38:44.668Z,3.03
2022-08-12T08:44:03.056Z,3.10
2022-08-12T08:49:06.325Z,2.63
2022-08-12T08:54:11.537Z,3.17
2022-08-12T08:59:15.086Z,2.83
2022-08-12T09:05:12.014Z,2.60
2022-08-12T09:10:01.982Z,2.90
2022-08-12T09:20:33.557Z,2.90
2022-08-12T09:25:37.975Z,2.70
2022-08-12T09:30:47.329Z,2.33
2022-08-12T09:36:04.464Z,2.90
2022-08-12T09:42:34.502Z,2.75
2022-08-12T09:46:32.355Z,2.63
2022-08-12T09:51:43.661Z,2.50
2022-08-12T09:57:02.006Z,3.20
2022-08-12T10:02:43.996Z,3.05
2022-08-12T10:07:39.770Z,2.40
2022-08-12T10:13:06.955Z,2.53
2022-08-12T10:18:12.056Z,2.67
2022-08-12T10:23:15.198Z,2.83
2022-08-12T10:28:38.381Z,2.70
2022-08-12T10:33:50.650Z,2.35
2022-08-12T10:40:00.164Z,2.22
2022-08-12T10:44:30.979Z,2.53
2022-08-12T10:50:03.592Z,2.25
2022-08-12T10:54:58.530Z,2.17
2022-08-12T11:00:30.947Z,2.20
2022-08-12T11:07:08.937Z,2.13
2022-08-12T11:10:48.479Z,2.42
2022-08-12T11:16:19.419Z,2.10
2022-08-12T11:21:18.117Z,2.33
2022-08-12T11:26:21.685Z,2.03
2022-08-12T11:31:26.059Z,2.30
2022-08-12T11:36:53.540Z,2.33
2022-08-12T11:41:56.444Z,2.45
2022-08-12T11:47:03.839Z,2.83
2022-08-12T11:52:17.564Z,2.03
2022-08-12T11:58:07.613Z,2.70
2022-08-12T12:03:17.303Z,2.30
2022-08-12T12:08:37.700Z,1.90
2022-08-12T12:14:08.101Z,2.20
2022-08-12T12:19:10.267Z,2.10
2022-08-12T12:24:13.278Z,2.10
2022-08-12T12:29:16.072Z,1.70
2022-08-12T12:34:40.283Z,1.88
2022-08-12T12:40:03.082Z,1.70
2022-08-12T12:45:19.059Z,2.00
2022-08-12T12:50:26.877Z,2.03
2022-08-12T12:55:39.734Z,1.80
2022-08-12T13:00:49.974Z,1.75
2022-08-12T13:06:00.543Z,1.98
2022-08-12T13:11:05.781Z,2.00
2022-08-12T13:16:14.287Z,2.00
2022-08-12T13:21:33.664Z,2.00
2022-08-12T13:26:40.609Z,1.85
2022-08-12T13:32:01.999Z,2.30
2022-08-12T13:37:09.876Z,3.33
2022-08-12T13:42:14.787Z,2.65
2022-08-12T13:47:19.549Z,1.90
2022-08-12T13:52:25.697Z,2.05
2022-08-12T13:57:46.885Z,2.10
2022-08-12T14:02:53.162Z,2.17
2022-08-12T14:07:59.104Z,2.10
2022-08-12T14:13:10.320Z,2.50
2022-08-12T14:18:21.370Z,2.03
2022-08-12T14:24:04.365Z,2.20
2022-08-12T14:28:57.882Z,1.90
2022-08-12T14:34:05.305Z,2.00
2022-08-12T14:39:09.706Z,1.80
2022-08-12T14:44:58.144Z,2.00
2022-08-12T14:50:37.190Z,2.00
2022-08-12T15:00:47.234Z,1.75
2022-08-12T15:06:05.434Z,1.77
2022-08-12T15:11:21.795Z,1.75
2022-08-12T15:16:25.827Z,1.70
2022-08-12T15:22:35.557Z,1.88
2022-08-12T15:26:58.380Z,2.00
2022-08-12T15:32:07.695Z,2.10
2022-08-12T15:37:18.664Z,1.60
2022-08-12T15:42:24.620Z,2.03
2022-08-12T15:47:43.099Z,1.90
2022-08-12T15:52:51.721Z,1.90
2022-08-12T15:57:58.388Z,1.90
2022-08-12T16:03:05.598Z,2.40
2022-08-12T16:08:19.751Z,10.13
2022-08-12T16:13:34.342Z,1.90
2022-08-12T16:18:39.270Z,5.22
2022-08-12T16:23:52.178Z,3.55
2022-08-12T16:29:02.541Z,3.92
2022-08-12T16:34:41.945Z,2.45
2022-08-12T16:40:01.105Z,1.80
2022-08-12T16:45:06.875Z,2.40
2022-08-12T16:50:11.496Z,2.05
2022-08-12T16:55:18.725Z,1.90
2022-08-12T17:00:24.075Z,2.20
2022-08-12T17:05:31.161Z,2.60
2022-08-12T17:10:35.525Z,2.50
2022-08-12T17:15:57.003Z,2.70
2022-08-12T17:21:07.402Z,2.42
2022-08-12T17:26:11.342Z,2.90
2022-08-12T17:31:17.757Z,3.22
2022-08-12T17:36:43.320Z,2.67
2022-08-12T17:41:56.944Z,3.53
2022-08-12T17:47:03.172Z,3.13
2022-08-12T17:52:08.160Z,2.95
2022-08-12T17:57:16.568Z,3.40
2022-08-12T18:02:25.423Z,2.67
2022-08-12T18:07:35.962Z,3.15
2022-08-12T18:12:42.719Z,3.33
2022-08-12T18:18:00.009Z,3.03
2022-08-12T18:23:05.314Z,2.88
2022-08-12T18:28:15.193Z,2.97
2022-08-12T18:33:24.765Z,3.20
2022-08-12T18:38:28.283Z,2.80
2022-08-12T18:43:38.942Z,3.22
2022-08-12T18:48:57.511Z,3.20
2022-08-12T18:54:21.094Z,3.50
2022-08-12T19:00:00.972Z,3.80
2022-08-12T19:04:53.840Z,4.30
2022-08-12T19:10:00.046Z,3.72
2022-08-12T19:15:08.119Z,3.85
2022-08-12T19:20:14.702Z,4.40
2022-08-12T19:25:23.915Z,4.50
2022-08-12T19:31:03.942Z,3.80
2022-08-12T19:36:25.417Z,4.38
2022-08-12T19:41:42.996Z,3.63
2022-08-12T19:46:53.201Z,4.47
2022-08-12T19:51:58.033Z,3.60
2022-08-12T19:57:01.492Z,3.92
2022-08-12T20:02:08.742Z,3.80
2022-08-12T20:07:23.923Z,3.93
2022-08-12T20:12:34.585Z,4.47
2022-08-12T20:17:50.485Z,3.55
2022-08-12T20:22:55.739Z,3.30
2022-08-12T20:28:04.172Z,3.13
2022-08-12T20:33:17.398Z,3.30
2022-08-12T20:38:27.988Z,3.55
2022-08-12T20:43:35.960Z,3.53
2022-08-12T20:48:44.277Z,3.40
2022-08-12T20:53:57.881Z,3.17
2022-08-12T20:59:05.422Z,4.50
2022-08-12T21:04:27.204Z,4.95
2022-08-12T21:09:34.284Z,3.80
2022-08-12T21:14:53.399Z,5.35
2022-08-12T21:20:04.463Z,8.40
2022-08-12T21:25:14.227Z,5.93
2022-08-12T21:30:20.207Z,4.38
2022-08-12T21:35:30.405Z,6.15
2022-08-12T21:40:51.791Z,4.50
2022-08-12T21:46:01.232Z,4.30
2022-08-12T21:51:22.668Z,4.00
2022-08-12T21:56:34.453Z,4.13
2022-08-12T22:01:48.383Z,4.65
2022-08-12T22:06:53.435Z,5.20
2022-08-12T22:12:19.930Z,4.72
2022-08-12T22:17:33.898Z,6.13
2022-08-12T22:22:56.092Z,5.43
2022-08-12T22:28:24.560Z,4.93
2022-08-12T22:33:27.716Z,6.22
2022-08-12T22:38:30.654Z,3.85
2022-08-12T22:44:00.344Z,3.35
2022-08-12T22:49:06.712Z,3.72
2022-08-12T22:54:36.650Z,4.40
2022-08-12T22:59:51.384Z,3.47
2022-08-12T23:04:59.244Z,3.45
2022-08-12T23:10:04.130Z,3.25
2022-08-12T23:15:10.272Z,4.80
2022-08-12T23:20:15.011Z,3.63
2022-08-12T23:25:19.000Z,4.57
2022-08-12T23:30:31.047Z,3.70
2022-08-12T23:35:54.051Z,3.90
2022-08-12T23:41:02.742Z,4.63
2022-08-12T23:46:08.750Z,4.28
2022-08-12T23:51:22.435Z,4.38
2022-08-12T23:56:28.589Z,3.80
